Time;durP1;ratioP1;P1;durP2;ratioP2;P2;SDS_P1;SDS_P2;PMS_P1;PMS_P2;Temp;Humidity;BMP_temperature;BMP_pressure;BME280_temperature;BME280_humidity;BME280_pressure;Samples;Min_cycle;Max_cycle;Signal;HPM_P1;HPM_P2
2023/09/18 00:00:53;;;;;;;0.00;0.00;;;18.90;99.90;;;;;;5084832;28;20284;-81
2023/09/18 00:03:20;;;;;;;0.00;0.00;;;18.90;99.90;;;;;;5092256;28;20272;-82
2023/09/18 00:05:49;;;;;;;0.00;0.00;;;19.00;99.90;;;;;;5090563;28;20454;-81
2023/09/18 00:08:15;;;;;;;0.00;0.00;;;18.90;99.90;;;;;;5077838;28;20616;-81
2023/09/18 00:10:41;;;;;;;0.00;0.00;;;18.90;99.90;;;;;;5089591;28;20458;-81
2023/09/18 00:13:07;;;;;;;0.00;0.00;;;18.80;99.90;;;;;;5089232;28;20442;-81
2023/09/18 00:15:32;;;;;;;0.00;0.00;;;18.80;99.90;;;;;;5086873;28;20444;-81
2023/09/18 00:17:58;;;;;;;0.00;0.00;;;18.80;99.90;;;;;;5081991;28;20197;-81
2023/09/18 00:20:26;;;;;;;0.00;0.00;;;18.90;99.90;;;;;;5081467;28;20190;-81
2023/09/18 00:22:55;;;;;;;0.00;0.00;;;18.80;99.90;;;;;;5086433;28;20683;-81
2023/09/18 00:25:20;;;;;;;0.00;0.00;;;18.90;99.90;;;;;;5089518;28;21318;-82
2023/09/18 00:27:46;;;;;;;0.00;0.00;;;18.90;99.90;;;;;;5073659;28;20551;-81
2023/09/18 00:30:11;;;;;;;0.00;0.00;;;18.80;99.90;;;;;;5095666;28;20188;-81
2023/09/18 00:32:37;;;;;;;0.00;0.00;;;18.80;99.90;;;;;;5075165;28;20654;-81
2023/09/18 00:35:03;;;;;;;0.00;0.00;;;18.80;99.90;;;;;;5092331;28;20531;-81
2023/09/18 00:37:29;;;;;;;0.00;0.00;;;18.70;99.90;;;;;;5083364;28;20208;-81
2023/09/18 00:39:54;;;;;;;0.00;0.00;;;18.80;99.90;;;;;;5096831;28;20191;-81
2023/09/18 00:42:22;;;;;;;0.00;0.00;;;18.80;99.90;;;;;;5089909;28;20529;-81
2023/09/18 00:44:48;;;;;;;0.00;0.00;;;18.70;99.90;;;;;;5088029;28;20679;-80
2023/09/18 00:47:15;;;;;;;0.00;0.00;;;18.70;99.90;;;;;;5085706;28;20446;-80
2023/09/18 00:49:43;;;;;;;0.00;0.00;;;18.70;99.90;;;;;;5086556;28;20265;-81
2023/09/18 00:52:10;;;;;;;0.00;0.00;;;18.60;99.90;;;;;;5088618;28;20446;-81
2023/09/18 00:54:38;;;;;;;0.00;0.00;;;18.70;99.90;;;;;;5089256;28;20454;-81
2023/09/18 00:57:04;;;;;;;0.00;0.00;;;18.60;99.90;;;;;;5087828;28;20450;-81
2023/09/18 00:59:30;;;;;;;0.00;0.00;;;18.60;99.90;;;;;;5087561;28;20477;-81
2023/09/18 01:01:56;;;;;;;0.00;0.00;;;18.60;99.90;;;;;;5072677;28;20933;-81
2023/09/18 01:04:25;;;;;;;0.00;0.00;;;18.50;99.90;;;;;;5079821;28;20536;-81
2023/09/18 01:06:51;;;;;;;0.00;0.00;;;18.50;99.90;;;;;;5071719;28;20189;-81
2023/09/18 01:09:18;;;;;;;0.00;0.00;;;18.50;99.90;;;;;;5073694;28;20486;-81
2023/09/18 01:12:02;;;;;;;0.00;0.00;;;18.50;99.90;;;;;;5079361;28;20229;-81
2023/09/18 01:14:57;;;;;;;0.00;0.00;;;18.40;99.90;;;;;;5077471;28;20825;-81
2023/09/18 01:17:23;;;;;;;0.00;0.00;;;18.40;99.90;;;;;;5058433;28;20450;-81
2023/09/18 01:19:48;;;;;;;0.00;0.00;;;18.50;99.90;;;;;;5103686;28;20453;-81
2023/09/18 01:22:16;;;;;;;0.00;0.00;;;18.50;99.90;;;;;;5093095;28;20430;-81
2023/09/18 01:24:43;;;;;;;0.00;0.00;;;18.50;99.90;;;;;;5088945;28;20192;-80
2023/09/18 01:27:14;;;;;;;0.00;0.00;;;18.50;99.90;;;;;;5088198;28;20599;-81
2023/09/18 01:29:40;;;;;;;0.00;0.00;;;18.50;99.90;;;;;;5093389;28;20809;-81
2023/09/18 01:32:06;;;;;;;0.00;0.00;;;18.50;99.90;;;;;;5080581;28;20512;-81
2023/09/18 01:34:39;;;;;;;0.00;0.00;;;18.50;99.90;;;;;;5092419;28;20280;-81
2023/09/18 01:37:05;;;;;;;0.00;0.00;;;18.50;99.90;;;;;;5082998;28;20427;-81
2023/09/18 01:39:34;;;;;;;0.10;0.10;;;18.50;99.90;;;;;;5064081;28;20554;-81
2023/09/18 01:42:05;;;;;;;0.10;0.10;;;18.50;99.90;;;;;;5070382;28;20436;-82
2023/09/18 01:44:31;;;;;;;0.00;0.00;;;18.40;99.90;;;;;;5088664;28;20942;-81
2023/09/18 01:47:03;;;;;;;0.00;0.00;;;18.50;99.90;;;;;;5086163;28;20443;-81
2023/09/18 01:49:32;;;;;;;0.00;0.00;;;18.40;99.90;;;;;;5088149;28;20443;-81
2023/09/18 01:51:57;;;;;;;0.00;0.00;;;18.50;99.90;;;;;;5089390;28;20456;-81
2023/09/18 01:54:23;;;;;;;0.00;0.00;;;18.40;99.90;;;;;;5088277;28;20431;-81
2023/09/18 01:56:49;;;;;;;0.00;0.00;;;18.40;99.90;;;;;;5089732;28;20264;-81
2023/09/18 01:59:14;;;;;;;0.00;0.00;;;18.40;99.90;;;;;;5087450;28;20574;-81
2023/09/18 02:01:40;;;;;;;0.00;0.00;;;18.40;99.90;;;;;;5085536;28;20173;-81
2023/09/18 02:04:05;;;;;;;0.00;0.00;;;18.30;99.90;;;;;;5092620;28;20188;-81
2023/09/18 02:06:31;;;;;;;0.00;0.00;;;18.30;99.90;;;;;;5088556;28;20271;-82
2023/09/18 02:08:56;;;;;;;0.00;0.00;;;18.30;99.90;;;;;;5075630;28;20757;-81
2023/09/18 02:11:22;;;;;;;0.00;0.00;;;18.30;99.90;;;;;;5089656;28;20247;-81
2023/09/18 02:13:47;;;;;;;0.00;0.00;;;18.30;99.90;;;;;;5069848;28;20250;-81
2023/09/18 02:16:13;;;;;;;0.00;0.00;;;18.20;99.90;;;;;;5076835;28;20193;-81
2023/09/18 02:18:38;;;;;;;0.00;0.00;;;18.20;99.90;;;;;;5076395;28;20572;-81
2023/09/18 02:21:04;;;;;;;0.00;0.00;;;18.20;99.90;;;;;;5094423;28;21933;-81
2023/09/18 02:23:29;;;;;;;0.00;0.00;;;18.20;99.90;;;;;;5085943;28;20267;-81
2023/09/18 02:25:57;;;;;;;0.00;0.00;;;18.20;99.90;;;;;;5069765;28;20196;-81
2023/09/18 02:28:22;;;;;;;0.00;0.00;;;18.20;99.90;;;;;;5094326;28;20220;-81
2023/09/18 02:30:48;;;;;;;0.00;0.00;;;18.20;99.90;;;;;;5085376;28;20892;-79
2023/09/18 02:33:13;;;;;;;0.00;0.00;;;18.10;99.90;;;;;;5083152;28;20243;-81
2023/09/18 02:35:40;;;;;;;0.00;0.00;;;18.20;99.90;;;;;;5078686;28;20193;-81
2023/09/18 02:38:06;;;;;;;0.00;0.00;;;18.10;99.90;;;;;;5087391;28;20282;-81
2023/09/18 02:40:31;;;;;;;0.00;0.00;;;18.10;99.90;;;;;;5080267;28;20535;-80
2023/09/18 02:42:57;;;;;;;0.00;0.00;;;18.10;99.90;;;;;;5078635;28;20201;-81
2023/09/18 02:45:22;;;;;;;0.00;0.00;;;18.10;99.90;;;;;;5076561;28;20185;-82
2023/09/18 02:47:48;;;;;;;0.00;0.00;;;18.10;99.90;;;;;;5087951;28;20217;-81
2023/09/18 02:50:13;;;;;;;0.00;0.00;;;18.10;99.90;;;;;;5085170;28;20189;-81
2023/09/18 02:52:39;;;;;;;0.00;0.00;;;18.10;99.90;;;;;;5088630;28;20234;-81
2023/09/18 02:55:05;;;;;;;0.00;0.00;;;18.10;99.90;;;;;;5090191;28;20543;-81
2023/09/18 02:57:30;;;;;;;0.00;0.00;;;18.10;99.90;;;;;;5090756;28;20518;-81
2023/09/18 02:59:56;;;;;;;0.10;0.10;;;18.10;99.90;;;;;;5099079;28;20235;-80
2023/09/18 03:02:22;;;;;;;0.00;0.00;;;18.10;99.90;;;;;;5077912;28;20182;-81
2023/09/18 03:04:48;;;;;;;0.00;0.00;;;18.10;99.90;;;;;;5082714;28;20200;-81
2023/09/18 03:07:13;;;;;;;0.00;0.00;;;18.10;99.90;;;;;;5081012;28;20439;-81
2023/09/18 03:09:39;;;;;;;0.00;0.00;;;18.10;99.90;;;;;;5088795;28;20189;-81
2023/09/18 03:12:05;;;;;;;0.00;0.00;;;18.00;99.90;;;;;;5094109;28;20257;-81
2023/09/18 03:14:30;;;;;;;0.00;0.00;;;18.00;99.90;;;;;;5089920;28;20184;-81
2023/09/18 03:16:56;;;;;;;0.00;0.00;;;18.00;99.90;;;;;;5086874;28;20213;-81
2023/09/18 03:19:22;;;;;;;0.00;0.00;;;18.00;99.90;;;;;;5075679;28;20265;-81
2023/09/18 03:21:47;;;;;;;0.00;0.00;;;18.00;99.90;;;;;;5088871;28;20178;-81
2023/09/18 03:24:13;;;;;;;0.00;0.00;;;18.00;99.90;;;;;;5086985;28;20470;-81
2023/09/18 03:26:38;;;;;;;0.00;0.00;;;18.00;99.90;;;;;;5090809;28;20192;-81
2023/09/18 03:29:04;;;;;;;0.00;0.00;;;18.00;99.90;;;;;;5097653;28;20413;-81
2023/09/18 03:31:29;;;;;;;0.10;0.10;;;18.00;99.90;;;;;;5089429;28;20178;-81
2023/09/18 03:33:55;;;;;;;0.10;0.10;;;18.00;99.90;;;;;;5089372;28;20209;-81
2023/09/18 03:36:23;;;;;;;0.10;0.10;;;18.00;99.90;;;;;;5081237;28;20178;-81
2023/09/18 03:38:49;;;;;;;0.00;0.00;;;18.00;99.90;;;;;;5090803;28;20178;-81
2023/09/18 03:41:14;;;;;;;0.00;0.00;;;18.00;99.90;;;;;;5092566;28;20439;-81
2023/09/18 03:43:40;;;;;;;0.00;0.00;;;18.00;99.90;;;;;;5068916;28;20185;-81
2023/09/18 03:46:06;;;;;;;0.00;0.00;;;18.00;99.90;;;;;;5088294;28;20188;-81
2023/09/18 03:48:37;;;;;;;0.00;0.00;;;18.00;99.90;;;;;;5073349;28;20272;-81
2023/09/18 03:51:06;;;;;;;0.00;0.00;;;18.00;99.90;;;;;;5069587;28;20801;-81
2023/09/18 03:53:34;;;;;;;0.00;0.00;;;18.00;99.90;;;;;;5101477;28;20490;-81
2023/09/18 03:56:00;;;;;;;0.00;0.00;;;18.00;99.90;;;;;;5074461;28;20431;-81
2023/09/18 03:58:26;;;;;;;0.00;0.00;;;18.00;99.90;;;;;;5081335;28;20461;-81
2023/09/18 04:00:52;;;;;;;0.00;0.00;;;18.00;99.90;;;;;;5072709;28;20192;-81
2023/09/18 04:03:17;;;;;;;0.03;0.03;;;17.90;99.90;;;;;;5086144;28;20451;-81
2023/09/18 04:05:43;;;;;;;0.00;0.00;;;17.80;99.90;;;;;;5097694;28;20196;-81
2023/09/18 04:08:08;;;;;;;0.00;0.00;;;17.80;99.90;;;;;;5086003;28;20217;-81
2023/09/18 04:10:34;;;;;;;0.00;0.00;;;17.90;99.90;;;;;;5070562;28;20181;-81
2023/09/18 04:13:00;;;;;;;0.00;0.00;;;17.90;99.90;;;;;;5089643;28;20206;-82
2023/09/18 04:15:27;;;;;;;0.00;0.00;;;17.90;99.90;;;;;;5080743;28;20185;-81
2023/09/18 04:17:53;;;;;;;0.00;0.00;;;17.90;99.90;;;;;;5069800;28;20680;-81
2023/09/18 04:20:18;;;;;;;0.10;0.10;;;17.90;99.90;;;;;;5089321;28;20471;-81
2023/09/18 04:22:49;;;;;;;0.00;0.00;;;17.90;99.90;;;;;;5091913;28;20700;-81
2023/09/18 04:25:16;;;;;;;0.00;0.00;;;17.90;99.90;;;;;;5089366;28;20189;-81
2023/09/18 04:27:41;;;;;;;0.00;0.00;;;18.00;99.90;;;;;;5087863;28;20459;-81
2023/09/18 04:30:11;;;;;;;0.00;0.00;;;18.00;99.90;;;;;;5073954;28;20449;-81
2023/09/18 04:32:37;;;;;;;0.00;0.00;;;18.00;99.90;;;;;;5080495;28;20185;-81
2023/09/18 04:35:05;;;;;;;0.00;0.00;;;18.00;99.90;;;;;;5087314;28;21019;-81
2023/09/18 04:37:31;;;;;;;0.00;0.00;;;17.90;99.90;;;;;;5093900;28;20439;-81
2023/09/18 04:39:57;;;;;;;0.00;0.00;;;17.90;99.90;;;;;;5082745;28;20455;-81
2023/09/18 04:42:23;;;;;;;0.00;0.00;;;17.90;99.90;;;;;;5071120;28;20189;-81
2023/09/18 04:44:49;;;;;;;0.00;0.00;;;17.90;99.90;;;;;;5092026;28;20455;-82
2023/09/18 04:47:14;;;;;;;0.00;0.00;;;17.90;99.90;;;;;;5086819;28;20191;-81
2023/09/18 04:49:40;;;;;;;0.00;0.00;;;17.90;99.90;;;;;;5083483;28;20185;-81
2023/09/18 04:52:06;;;;;;;0.00;0.00;;;17.90;99.90;;;;;;5070489;28;20462;-81
2023/09/18 04:54:31;;;;;;;0.00;0.00;;;17.80;99.90;;;;;;5080268;28;20213;-81
2023/09/18 04:56:57;;;;;;;0.00;0.00;;;17.90;99.90;;;;;;5086964;28;20173;-81
2023/09/18 04:59:22;;;;;;;0.00;0.00;;;17.80;99.90;;;;;;5089417;28;20248;-81
2023/09/18 05:01:48;;;;;;;0.00;0.00;;;17.90;99.90;;;;;;5082030;28;20207;-81
2023/09/18 05:04:14;;;;;;;0.00;0.00;;;17.90;99.90;;;;;;5085062;28;20196;-81
2023/09/18 05:06:40;;;;;;;0.00;0.00;;;17.90;99.90;;;;;;5080801;28;20190;-82
2023/09/18 05:09:05;;;;;;;0.00;0.00;;;17.90;99.90;;;;;;5067098;28;20581;-81
2023/09/18 05:11:31;;;;;;;0.00;0.00;;;17.90;99.90;;;;;;5084510;28;20509;-81
2023/09/18 05:13:57;;;;;;;0.00;0.00;;;17.90;99.90;;;;;;5085312;28;20189;-82
2023/09/18 05:16:22;;;;;;;0.00;0.00;;;17.90;99.90;;;;;;5087974;28;20555;-82
2023/09/18 05:18:48;;;;;;;0.00;0.00;;;17.90;99.90;;;;;;5085800;28;20220;-82
2023/09/18 05:21:13;;;;;;;0.00;0.00;;;17.90;99.90;;;;;;5087701;28;20189;-82
2023/09/18 05:23:39;;;;;;;0.10;0.10;;;18.00;99.90;;;;;;5089991;28;20242;-82
2023/09/18 05:26:04;;;;;;;0.00;0.00;;;18.00;99.90;;;;;;5090156;28;20180;-82
2023/09/18 05:28:30;;;;;;;0.00;0.00;;;18.00;99.90;;;;;;5088469;28;20221;-82
2023/09/18 05:30:56;;;;;;;0.00;0.00;;;18.00;99.90;;;;;;5083437;28;20695;-82
2023/09/18 05:33:21;;;;;;;0.00;0.00;;;18.10;99.90;;;;;;5090955;28;20684;-82
2023/09/18 05:35:47;;;;;;;0.00;0.00;;;18.10;99.90;;;;;;5086028;28;20189;-81
2023/09/18 05:38:13;;;;;;;0.00;0.00;;;18.00;99.90;;;;;;5090041;28;21052;-81
2023/09/18 05:40:40;;;;;;;0.00;0.00;;;18.10;99.90;;;;;;5069552;28;20191;-81
2023/09/18 05:43:05;;;;;;;0.00;0.00;;;18.10;99.90;;;;;;5079521;28;20439;-81
2023/09/18 05:45:32;;;;;;;0.00;0.00;;;18.10;99.90;;;;;;5081533;28;20446;-82
2023/09/18 05:48:03;;;;;;;0.00;0.00;;;18.10;99.90;;;;;;5089159;28;20270;-81
2023/09/18 05:50:30;;;;;;;0.00;0.00;;;18.10;99.90;;;;;;5088403;28;20450;-82
2023/09/18 05:52:59;;;;;;;0.00;0.00;;;18.10;99.90;;;;;;5071031;28;20447;-82
2023/09/18 05:55:25;;;;;;;0.00;0.00;;;18.10;99.90;;;;;;5089833;28;20453;-82
2023/09/18 05:57:51;;;;;;;0.00;0.00;;;18.20;99.90;;;;;;5071794;28;20427;-81
2023/09/18 06:00:17;;;;;;;0.00;0.00;;;18.20;99.90;;;;;;5087290;28;20474;-82
2023/09/18 06:02:44;;;;;;;0.00;0.00;;;18.30;99.90;;;;;;5094529;28;20168;-82
2023/09/18 06:05:11;;;;;;;0.10;0.10;;;18.40;99.90;;;;;;5108822;28;20861;-82
2023/09/18 06:07:37;;;;;;;0.10;0.10;;;18.40;99.90;;;;;;5088478;28;20566;-82
2023/09/18 06:10:02;;;;;;;0.00;0.00;;;18.40;99.90;;;;;;5085844;28;20501;-83
2023/09/18 06:12:29;;;;;;;0.00;0.00;;;18.50;99.90;;;;;;5067575;28;20493;-83
2023/09/18 06:14:56;;;;;;;0.00;0.00;;;18.50;99.90;;;;;;5069557;28;20189;-82
2023/09/18 06:17:22;;;;;;;0.00;0.00;;;18.50;99.90;;;;;;5070751;28;20530;-81
2023/09/18 06:19:47;;;;;;;0.00;0.00;;;18.50;99.90;;;;;;5085712;28;20546;-82
2023/09/18 06:22:14;;;;;;;0.00;0.00;;;18.50;99.90;;;;;;5068440;28;20213;-81
2023/09/18 06:24:39;;;;;;;0.10;0.00;;;18.60;99.90;;;;;;5075605;28;20196;-82
2023/09/18 06:27:05;;;;;;;0.00;0.00;;;18.60;99.90;;;;;;5087318;28;20439;-82
2023/09/18 06:29:34;;;;;;;0.00;0.00;;;18.70;99.90;;;;;;5092102;28;20632;-82
2023/09/18 06:32:00;;;;;;;0.00;0.00;;;18.80;99.90;;;;;;5091816;28;20182;-82
2023/09/18 06:34:26;;;;;;;0.00;0.00;;;18.80;99.90;;;;;;5092394;28;20518;-81
2023/09/18 06:36:51;;;;;;;0.10;0.10;;;18.70;99.90;;;;;;5081361;28;20558;-82
2023/09/18 06:39:17;;;;;;;0.00;0.00;;;18.70;99.90;;;;;;5087813;28;20299;-80
2023/09/18 06:41:42;;;;;;;0.00;0.00;;;18.70;99.90;;;;;;5087203;28;20197;-81
2023/09/18 06:44:08;;;;;;;0.00;0.00;;;18.70;99.90;;;;;;5090400;28;20250;-81
2023/09/18 06:46:33;;;;;;;0.10;0.10;;;18.80;99.90;;;;;;5088651;28;20232;-82
2023/09/18 06:49:00;;;;;;;0.00;0.00;;;18.90;99.90;;;;;;5086848;28;20704;-81
2023/09/18 06:51:27;;;;;;;0.00;0.00;;;19.10;99.90;;;;;;5091286;28;20265;-82
2023/09/18 06:53:53;;;;;;;0.00;0.00;;;19.30;99.90;;;;;;5087001;28;20462;-81
2023/09/18 06:56:19;;;;;;;0.00;0.00;;;19.40;99.90;;;;;;5085227;28;20814;-81
2023/09/18 06:58:47;;;;;;;0.00;0.00;;;19.60;99.90;;;;;;5089086;28;20479;-81
2023/09/18 07:01:13;;;;;;;0.00;0.00;;;19.70;99.90;;;;;;5081285;28;20193;-81
2023/09/18 07:03:40;;;;;;;0.00;0.00;;;19.80;99.90;;;;;;5087705;28;20457;-80
2023/09/18 07:06:06;;;;;;;0.00;0.00;;;19.80;99.90;;;;;;5082764;28;20188;-81
2023/09/18 07:08:32;;;;;;;0.00;0.00;;;19.80;99.90;;;;;;5082574;28;20478;-82
2023/09/18 07:10:58;;;;;;;0.00;0.00;;;19.90;99.90;;;;;;5083642;28;20189;-81
2023/09/18 07:13:24;;;;;;;0.00;0.00;;;19.90;99.90;;;;;;5087003;28;20503;-81
2023/09/18 07:15:50;;;;;;;0.00;0.00;;;20.00;99.90;;;;;;5083368;28;20474;-82
2023/09/18 07:18:16;;;;;;;0.00;0.00;;;20.00;99.90;;;;;;5078459;28;20182;-82
2023/09/18 07:20:43;;;;;;;0.00;0.00;;;20.10;99.90;;;;;;5092594;28;20965;-82
2023/09/18 07:23:09;;;;;;;0.00;0.00;;;20.20;99.90;;;;;;5089611;28;20192;-81
2023/09/18 07:25:38;;;;;;;0.00;0.00;;;20.30;99.90;;;;;;5089636;28;20439;-80
2023/09/18 07:28:05;;;;;;;0.10;0.00;;;20.30;99.90;;;;;;5091397;28;20223;-81
2023/09/18 07:30:31;;;;;;;0.10;0.00;;;20.40;99.90;;;;;;5088393;28;20443;-81
2023/09/18 07:32:57;;;;;;;0.00;0.00;;;20.40;99.90;;;;;;5068426;28;20480;-81
2023/09/18 07:35:23;;;;;;;0.00;0.00;;;20.40;99.90;;;;;;5070681;28;22205;-82
2023/09/18 07:37:49;;;;;;;0.00;0.00;;;20.40;99.90;;;;;;5091197;28;20461;-81
2023/09/18 07:40:18;;;;;;;0.00;0.00;;;20.50;99.90;;;;;;5088037;28;20931;-79
2023/09/18 07:42:44;;;;;;;0.00;0.00;;;20.50;99.90;;;;;;5084927;28;20200;-81
2023/09/18 07:45:10;;;;;;;0.00;0.00;;;20.50;99.90;;;;;;5085028;28;20447;-81
2023/09/18 07:47:35;;;;;;;0.00;0.00;;;20.50;99.90;;;;;;5090875;28;20209;-81
2023/09/18 07:50:01;;;;;;;0.00;0.00;;;20.60;99.90;;;;;;5101709;28;20438;-81
2023/09/18 07:52:27;;;;;;;0.10;0.00;;;20.70;99.90;;;;;;5094016;28;20637;-80
2023/09/18 07:54:53;;;;;;;0.10;0.00;;;20.80;99.90;;;;;;5072681;28;20608;-80
2023/09/18 07:57:19;;;;;;;0.10;0.00;;;20.90;99.90;;;;;;5089331;28;20482;-80
2023/09/18 07:59:46;;;;;;;0.00;0.00;;;20.80;99.90;;;;;;5084395;28;20239;-80
2023/09/18 08:02:11;;;;;;;0.00;0.00;;;20.80;99.90;;;;;;5086703;28;20431;-80
2023/09/18 08:04:37;;;;;;;0.00;0.00;;;20.70;99.90;;;;;;5089725;28;20451;-80
2023/09/18 08:07:05;;;;;;;0.00;0.00;;;20.80;99.90;;;;;;5090341;28;20184;-80
2023/09/18 08:09:31;;;;;;;0.00;0.00;;;20.90;99.90;;;;;;5089727;28;20354;-80
2023/09/18 08:11:57;;;;;;;0.00;0.00;;;20.90;99.90;;;;;;5087232;28;20454;-81
2023/09/18 08:14:22;;;;;;;0.00;0.00;;;21.10;99.90;;;;;;5064745;28;20455;-81
2023/09/18 08:16:48;;;;;;;0.00;0.00;;;21.00;99.90;;;;;;5066492;28;20193;-81
2023/09/18 08:19:16;;;;;;;0.00;0.00;;;21.00;99.90;;;;;;5084860;28;20665;-81
2023/09/18 08:21:42;;;;;;;0.00;0.00;;;21.00;99.90;;;;;;5084997;28;20193;-80
2023/09/18 08:24:08;;;;;;;0.00;0.00;;;21.10;99.90;;;;;;5081612;28;20953;-80
2023/09/18 08:26:34;;;;;;;0.00;0.00;;;21.10;99.90;;;;;;5084573;28;20322;-80
2023/09/18 08:28:59;;;;;;;0.00;0.00;;;21.20;99.90;;;;;;5090931;28;20246;-79
2023/09/18 08:31:27;;;;;;;0.00;0.00;;;21.30;99.90;;;;;;5088937;28;20589;-81
2023/09/18 08:33:52;;;;;;;0.00;0.00;;;21.40;99.90;;;;;;5068234;28;20196;-81
2023/09/18 08:36:18;;;;;;;0.00;0.00;;;21.40;99.90;;;;;;5072806;28;20431;-81
2023/09/18 08:38:45;;;;;;;0.00;0.00;;;21.40;99.90;;;;;;5088596;28;20727;-82
2023/09/18 08:41:12;;;;;;;0.00;0.00;;;21.50;99.90;;;;;;5086855;28;20181;-80
2023/09/18 08:43:41;;;;;;;0.00;0.00;;;21.60;99.90;;;;;;5072042;28;20508;-80
2023/09/18 08:46:07;;;;;;;0.00;0.00;;;21.60;99.90;;;;;;5087992;28;20450;-79
2023/09/18 08:48:36;;;;;;;0.00;0.00;;;21.60;99.90;;;;;;5093805;28;20483;-78
2023/09/18 08:51:06;;;;;;;0.00;0.00;;;21.50;99.90;;;;;;5085114;28;20439;-79
2023/09/18 08:53:35;;;;;;;0.00;0.00;;;21.40;99.90;;;;;;5073400;28;21087;-79
2023/09/18 08:56:01;;;;;;;0.00;0.00;;;21.40;99.90;;;;;;5088985;28;20435;-81
2023/09/18 08:58:31;;;;;;;0.00;0.00;;;21.40;99.90;;;;;;5087263;28;20480;-83
2023/09/18 09:00:57;;;;;;;0.00;0.00;;;21.30;99.90;;;;;;5086523;28;20447;-81
2023/09/18 09:03:23;;;;;;;0.00;0.00;;;21.30;99.90;;;;;;5064944;28;20474;-80
2023/09/18 09:05:49;;;;;;;0.00;0.00;;;21.30;99.90;;;;;;5082080;28;20920;-80
2023/09/18 09:08:15;;;;;;;0.00;0.00;;;21.30;99.90;;;;;;5080359;28;20221;-80
2023/09/18 09:10:41;;;;;;;0.00;0.00;;;21.20;99.90;;;;;;5081393;28;20195;-81
2023/09/18 09:13:06;;;;;;;0.00;0.00;;;21.20;99.90;;;;;;5083129;28;20439;-80
2023/09/18 09:15:47;;;;;;;0.00;0.00;;;21.20;99.90;;;;;;5084619;28;20710;-80
2023/09/18 09:18:16;;;;;;;0.00;0.00;;;21.20;99.90;;;;;;5085118;28;20810;-81
2023/09/18 09:20:54;;;;;;;0.00;0.00;;;21.20;99.90;;;;;;5083255;28;20458;-81
2023/09/18 09:23:19;;;;;;;0.00;0.00;;;21.20;99.90;;;;;;5084844;28;20775;-81
2023/09/18 09:25:45;;;;;;;0.00;0.00;;;21.20;99.90;;;;;;5089171;28;20450;-79
2023/09/18 09:28:12;;;;;;;0.00;0.00;;;21.10;99.90;;;;;;5088703;28;20227;-78
2023/09/18 09:30:37;;;;;;;0.00;0.00;;;21.20;99.90;;;;;;5083783;28;20649;-78
2023/09/18 09:33:04;;;;;;;0.00;0.00;;;21.20;99.90;;;;;;5085248;28;20451;-79
2023/09/18 09:35:35;;;;;;;0.00;0.00;;;21.20;99.90;;;;;;5094560;28;20196;-79
2023/09/18 09:38:11;;;;;;;0.00;0.00;;;21.30;99.90;;;;;;5084561;28;20995;-78
2023/09/18 09:40:41;;;;;;;0.00;0.00;;;21.30;99.90;;;;;;5088098;28;20447;-79
2023/09/18 09:43:09;;;;;;;0.00;0.00;;;21.40;99.90;;;;;;5085803;28;20944;-79
2023/09/18 09:45:35;;;;;;;0.00;0.00;;;21.40;99.90;;;;;;5098084;28;20568;-79
2023/09/18 09:48:05;;;;;;;0.00;0.00;;;21.40;99.90;;;;;;5096370;28;20463;-79
2023/09/18 09:50:32;;;;;;;0.00;0.00;;;21.60;99.90;;;;;;5083403;28;20446;-78
2023/09/18 09:52:58;;;;;;;0.00;0.00;;;21.60;99.90;;;;;;5076105;28;20808;-78
2023/09/18 09:55:33;;;;;;;0.00;0.00;;;21.60;99.90;;;;;;5090064;28;20438;-79
2023/09/18 09:58:01;;;;;;;0.00;0.00;;;21.60;99.90;;;;;;5109229;28;20907;-78
2023/09/18 10:00:36;;;;;;;0.00;0.00;;;21.60;99.90;;;;;;5099255;28;20540;-79
2023/09/18 10:03:04;;;;;;;0.00;0.00;;;21.70;99.90;;;;;;5092633;28;20499;-79
2023/09/18 10:05:35;;;;;;;0.00;0.00;;;21.70;99.90;;;;;;5090056;28;20462;-81
2023/09/18 10:08:10;;;;;;;0.00;0.00;;;21.70;99.90;;;;;;5092313;28;20479;-80
2023/09/18 10:10:42;;;;;;;0.00;0.00;;;21.80;99.90;;;;;;5085877;28;20528;-80
2023/09/18 10:13:40;;;;;;;0.00;0.00;;;21.70;99.90;;;;;;5084310;28;20442;-81
2023/09/18 10:16:10;;;;;;;0.00;0.00;;;21.80;99.90;;;;;;5089422;28;20465;-81
2023/09/18 10:18:47;;;;;;;0.00;0.00;;;21.80;99.90;;;;;;5091662;28;20442;-80
2023/09/18 10:21:24;;;;;;;0.00;0.00;;;21.90;99.90;;;;;;5091236;28;21006;-80
2023/09/18 10:24:00;;;;;;;0.00;0.00;;;21.90;99.90;;;;;;5074109;28;21307;-81
2023/09/18 10:26:28;;;;;;;0.00;0.00;;;22.00;99.90;;;;;;5087756;28;20468;-81
2023/09/18 10:28:59;;;;;;;0.00;0.00;;;22.10;99.90;;;;;;5089935;28;20490;-84
2023/09/18 10:31:26;;;;;;;0.00;0.00;;;22.10;99.90;;;;;;5087490;28;20827;-82
2023/09/18 10:33:53;;;;;;;0.00;0.00;;;22.20;99.90;;;;;;5091342;28;20443;-82
2023/09/18 10:36:20;;;;;;;0.00;0.00;;;22.20;99.90;;;;;;5070888;28;20857;-81
2023/09/18 10:38:50;;;;;;;0.00;0.00;;;22.30;99.90;;;;;;5090515;28;20786;-80
2023/09/18 10:41:18;;;;;;;0.00;0.00;;;22.30;99.90;;;;;;5084153;28;20427;-81
2023/09/18 10:43:46;;;;;;;0.00;0.00;;;22.20;99.90;;;;;;5099278;28;20450;-82
2023/09/18 10:46:13;;;;;;;0.00;0.00;;;22.20;99.90;;;;;;5098982;28;20430;-82
2023/09/18 10:48:41;;;;;;;0.00;0.00;;;22.00;99.90;;;;;;5088292;28;20492;-82
2023/09/18 10:51:09;;;;;;;0.00;0.00;;;21.90;99.90;;;;;;5091930;28;20546;-82
2023/09/18 10:53:35;;;;;;;0.00;0.00;;;21.80;99.90;;;;;;5096238;28;20446;-82
2023/09/18 10:56:04;;;;;;;0.00;0.00;;;21.70;99.90;;;;;;5087196;28;20437;-81
2023/09/18 10:58:29;;;;;;;0.00;0.00;;;21.70;99.90;;;;;;5092524;28;20481;-81
2023/09/18 11:00:57;;;;;;;0.10;0.00;;;21.80;99.90;;;;;;5093946;28;20439;-82
2023/09/18 11:03:23;;;;;;;0.10;0.10;;;21.90;99.90;;;;;;5087010;28;20177;-83
2023/09/18 11:06:10;;;;;;;0.00;0.00;;;21.90;99.90;;;;;;5085641;28;20798;-82
2023/09/18 11:08:48;;;;;;;0.10;0.00;;;22.00;99.90;;;;;;5092530;28;20488;-81
2023/09/18 11:11:19;;;;;;;0.10;0.00;;;22.10;99.90;;;;;;5093149;28;20450;-81
2023/09/18 11:13:47;;;;;;;0.10;0.00;;;22.10;99.90;;;;;;5092061;28;20438;-82
2023/09/18 11:16:38;;;;;;;0.00;0.00;;;22.10;99.90;;;;;;5086360;28;20454;-80
2023/09/18 11:19:05;;;;;;;0.00;0.00;;;22.10;99.90;;;;;;5082026;28;20451;-82
2023/09/18 11:21:32;;;;;;;0.00;0.00;;;22.20;99.90;;;;;;5069813;28;20444;-83
2023/09/18 11:23:59;;;;;;;0.00;0.00;;;22.30;99.90;;;;;;5089430;28;20879;-81
2023/09/18 11:26:30;;;;;;;0.00;0.00;;;22.40;99.90;;;;;;5096584;28;21278;-81
2023/09/18 11:28:55;;;;;;;0.00;0.00;;;22.40;99.90;;;;;;5108831;28;20486;-81
2023/09/18 11:31:59;;;;;;;0.00;0.00;;;22.50;99.90;;;;;;5082423;28;20443;-82
2023/09/18 11:34:28;;;;;;;0.00;0.00;;;22.40;99.90;;;;;;5097252;28;20177;-80
2023/09/18 11:36:54;;;;;;;0.00;0.00;;;22.60;99.90;;;;;;5084933;28;20438;-84
2023/09/18 11:39:40;;;;;;;0.00;0.00;;;22.70;99.90;;;;;;5092220;28;20842;-83
2023/09/18 11:42:17;;;;;;;0.00;0.00;;;22.70;99.90;;;;;;5073961;28;20445;-81
2023/09/18 11:44:45;;;;;;;0.00;0.00;;;22.70;99.90;;;;;;5076090;28;20452;-83
2023/09/18 11:47:19;;;;;;;0.00;0.00;;;22.80;99.90;;;;;;5085596;28;20446;-82
2023/09/18 11:49:57;;;;;;;0.00;0.00;;;22.90;99.90;;;;;;5089657;28;20481;-80
2023/09/18 11:52:29;;;;;;;0.00;0.00;;;23.30;99.90;;;;;;5067357;28;20447;-79
2023/09/18 11:54:57;;;;;;;0.00;0.00;;;23.50;99.90;;;;;;5074696;28;20446;-80
2023/09/18 11:57:24;;;;;;;0.00;0.00;;;23.20;99.90;;;;;;5074584;28;20427;-80
2023/09/18 11:59:50;;;;;;;0.00;0.00;;;22.90;99.90;;;;;;5091076;28;20481;-84
2023/09/18 12:02:36;;;;;;;0.00;0.00;;;22.60;99.90;;;;;;5081917;28;20527;-83
2023/09/18 12:05:14;;;;;;;0.00;0.00;;;22.50;99.90;;;;;;5082870;28;20484;-82
2023/09/18 12:07:43;;;;;;;0.00;0.00;;;22.30;99.90;;;;;;5075220;28;20983;-82
2023/09/18 12:10:10;;;;;;;0.00;0.00;;;22.30;99.90;;;;;;5085720;28;20532;-83
2023/09/18 12:12:35;;;;;;;0.00;0.00;;;22.20;99.90;;;;;;5091229;28;20470;-83
2023/09/18 12:15:01;;;;;;;0.00;0.00;;;22.10;99.90;;;;;;5098422;28;20951;-83
2023/09/18 12:17:27;;;;;;;0.00;0.00;;;22.00;99.90;;;;;;5092002;28;20180;-83
2023/09/18 12:19:53;;;;;;;0.00;0.00;;;22.10;99.90;;;;;;5070169;28;20195;-83
2023/09/18 12:22:26;;;;;;;0.00;0.00;;;22.30;99.90;;;;;;5068200;28;20221;-85
2023/09/18 12:24:52;;;;;;;0.00;0.00;;;22.50;99.90;;;;;;5074401;28;20439;-83
2023/09/18 12:27:18;;;;;;;0.00;0.00;;;22.80;99.90;;;;;;5091518;28;20926;-84
2023/09/18 12:29:44;;;;;;;0.00;0.00;;;23.00;99.90;;;;;;5075145;28;20960;-85
2023/09/18 12:32:13;;;;;;;0.00;0.00;;;22.90;99.90;;;;;;5074749;28;20184;-83
2023/09/18 12:34:40;;;;;;;0.00;0.00;;;22.70;99.90;;;;;;5067342;28;20458;-83
2023/09/18 12:37:09;;;;;;;0.00;0.00;;;22.60;99.90;;;;;;5072208;28;20431;-84
2023/09/18 12:39:35;;;;;;;0.00;0.00;;;22.60;99.90;;;;;;5069123;28;20443;-85
2023/09/18 12:42:00;;;;;;;0.00;0.00;;;22.60;99.90;;;;;;5077822;28;20539;-82
2023/09/18 12:44:26;;;;;;;0.00;0.00;;;22.50;99.90;;;;;;5083722;28;20521;-82
2023/09/18 12:46:52;;;;;;;0.00;0.00;;;22.50;99.90;;;;;;5097603;28;20199;-81
2023/09/18 12:49:21;;;;;;;0.00;0.00;;;22.30;99.90;;;;;;5096121;28;20710;-80